createdAt,value
2023-02-22T00:00:10.826Z,7.61
2023-02-22T00:01:10.831Z,7.61
2023-02-22T00:02:11.208Z,7.61
2023-02-22T00:03:10.877Z,7.61
2023-02-22T00:04:10.851Z,7.62
2023-02-22T00:05:10.857Z,7.63
2023-02-22T00:06:10.864Z,7.65
2023-02-22T00:07:10.888Z,7.63
2023-02-22T00:08:10.877Z,7.64
2023-02-22T00:09:10.883Z,7.65
2023-02-22T00:10:10.891Z,7.66
2023-02-22T00:11:10.909Z,7.68
2023-02-22T00:12:10.913Z,7.67
2023-02-22T00:13:10.922Z,7.66
2023-02-22T00:14:10.929Z,7.67
2023-02-22T00:15:10.941Z,7.65
2023-02-22T00:16:10.952Z,7.65
2023-02-22T00:17:10.956Z,7.65
2023-02-22T00:18:10.962Z,7.68
2023-02-22T00:19:10.973Z,7.66
2023-02-22T00:20:10.980Z,7.68
2023-02-22T00:21:10.986Z,7.67
2023-02-22T00:22:10.996Z,7.67
2023-02-22T00:23:11.006Z,7.66
2023-02-22T00:24:11.013Z,7.67
2023-02-22T00:25:11.020Z,7.68
2023-02-22T00:26:11.024Z,7.69
2023-02-22T00:27:11.032Z,7.69
2023-02-22T00:28:11.067Z,7.69
2023-02-22T00:29:11.054Z,7.68
2023-02-22T00:30:11.103Z,7.68
2023-02-22T00:31:11.070Z,7.66
2023-02-22T00:32:11.172Z,7.67
2023-02-22T00:33:11.085Z,7.65
2023-02-22T00:34:11.091Z,7.66
2023-02-22T00:35:11.105Z,7.65
2023-02-22T00:36:11.117Z,7.66
2023-02-22T00:37:11.111Z,7.63
2023-02-22T00:38:11.116Z,7.63
2023-02-22T00:39:11.126Z,7.61
2023-02-22T00:40:11.147Z,7.61
2023-02-22T00:41:11.143Z,7.59
2023-02-22T00:42:11.177Z,7.59
2023-02-22T00:43:11.160Z,7.58
2023-02-22T00:44:11.162Z,7.56
2023-02-22T00:45:11.167Z,7.56
2023-02-22T00:46:11.248Z,7.56
2023-02-22T00:47:11.181Z,7.55
2023-02-22T00:48:11.184Z,7.54
2023-02-22T00:49:11.191Z,7.53
2023-02-22T00:50:11.199Z,7.51
2023-02-22T00:51:11.204Z,7.51
2023-02-22T00:52:11.215Z,7.52
2023-02-22T00:53:11.216Z,7.53
2023-02-22T00:54:11.221Z,7.53
2023-02-22T00:55:11.227Z,7.55
2023-02-22T00:56:11.234Z,7.56
2023-02-22T00:57:11.242Z,7.55
2023-02-22T00:58:11.246Z,7.57
2023-02-22T00:59:11.253Z,7.57
2023-02-22T01:00:11.260Z,7.58
2023-02-22T01:01:11.297Z,7.58
2023-02-22T01:02:11.320Z,7.59
2023-02-22T01:03:11.288Z,7.60
2023-02-22T01:04:11.290Z,7.60
2023-02-22T01:05:11.291Z,7.62
2023-02-22T01:06:11.298Z,7.61
2023-02-22T01:07:11.301Z,7.62
2023-02-22T01:08:11.315Z,7.62
2023-02-22T01:09:11.315Z,7.63
2023-02-22T01:10:11.324Z,7.66
2023-02-22T01:11:11.330Z,7.65
2023-02-22T01:12:11.334Z,7.65
2023-02-22T01:13:11.354Z,7.66
2023-02-22T01:14:11.354Z,7.67
2023-02-22T01:15:11.361Z,7.65
2023-02-22T01:16:11.384Z,7.65
2023-02-22T01:17:11.369Z,7.65
2023-02-22T01:18:11.377Z,7.65
2023-02-22T01:19:11.387Z,7.66
2023-02-22T01:20:11.392Z,7.66
2023-02-22T01:21:11.399Z,7.65
2023-02-22T01:22:11.409Z,7.66
2023-02-22T01:23:11.413Z,7.63
2023-02-22T01:24:11.422Z,7.67
2023-02-22T01:25:11.429Z,7.66
2023-02-22T01:26:11.435Z,7.68
2023-02-22T01:27:11.446Z,7.68
2023-02-22T01:28:11.450Z,7.68
2023-02-22T01:29:11.457Z,7.68
2023-02-22T01:30:11.483Z,7.67
2023-02-22T01:31:11.684Z,7.68
2023-02-22T01:32:11.514Z,7.68
2023-02-22T01:33:11.490Z,7.69
2023-02-22T01:34:11.501Z,7.68
2023-02-22T01:35:11.513Z,7.69
2023-02-22T01:36:11.672Z,7.71
2023-02-22T01:37:11.526Z,7.70
2023-02-22T01:38:11.535Z,7.70
2023-02-22T01:39:11.541Z,7.71
2023-02-22T01:40:11.540Z,7.72
2023-02-22T01:41:11.547Z,7.71
2023-02-22T01:42:11.555Z,7.71
2023-02-22T01:43:11.564Z,7.71
2023-02-22T01:44:11.579Z,7.71
2023-02-22T01:45:11.588Z,7.70
2023-02-22T01:46:11.628Z,7.72
2023-02-22T02:04:12.233Z,7.73
2023-02-22T02:05:11.805Z,7.73
2023-02-22T02:06:11.757Z,7.73
2023-02-22T02:07:11.760Z,7.74
2023-02-22T02:08:11.820Z,7.72
2023-02-22T02:09:11.773Z,7.73
2023-02-22T02:10:11.777Z,7.72
2023-02-22T02:11:11.783Z,7.70
2023-02-22T02:12:11.796Z,7.70
2023-02-22T02:13:11.801Z,7.70
2023-02-22T02:14:11.813Z,7.68
2023-02-22T02:15:11.812Z,7.67
2023-02-22T02:16:11.821Z,7.69
2023-02-22T02:17:11.852Z,7.69
2023-02-22T02:18:11.837Z,7.68
2023-02-22T02:19:11.843Z,7.69
2023-02-22T02:20:11.846Z,7.68
2023-02-22T02:21:11.876Z,7.67
2023-02-22T02:22:11.864Z,7.68
2023-02-22T02:23:11.872Z,7.67
2023-02-22T02:24:11.880Z,7.66
2023-02-22T02:25:11.883Z,7.68
2023-02-22T02:26:11.893Z,7.69
2023-02-22T02:27:11.911Z,7.68
2023-02-22T02:28:11.903Z,7.68
2023-02-22T02:29:11.908Z,7.68
2023-02-22T02:30:11.938Z,7.70
2023-02-22T02:31:11.924Z,7.68
2023-02-22T02:32:12.163Z,7.69
2023-02-22T02:33:11.949Z,7.69
2023-02-22T02:34:11.945Z,7.72
2023-02-22T02:35:11.959Z,7.71
2023-02-22T02:36:11.961Z,7.71
2023-02-22T02:37:11.967Z,7.72
2023-02-22T02:38:11.975Z,7.71
2023-02-22T02:39:11.980Z,7.72
2023-02-22T02:40:12.006Z,7.71
2023-02-22T02:41:11.997Z,7.72
2023-02-22T02:42:12.000Z,7.70
2023-02-22T02:43:12.007Z,7.72
2023-02-22T02:44:12.017Z,7.69
2023-02-22T02:45:12.022Z,7.72
2023-02-22T02:46:12.029Z,7.71
2023-02-22T02:47:12.079Z,7.70
2023-02-22T02:48:12.047Z,7.71
2023-02-22T02:49:12.046Z,7.69
2023-02-22T02:50:12.055Z,7.71
2023-02-22T02:51:12.061Z,7.70
2023-02-22T02:52:12.072Z,7.71
2023-02-22T02:53:12.075Z,7.70
2023-02-22T02:54:12.082Z,7.69
2023-02-22T02:55:12.089Z,7.71
2023-02-22T02:56:12.098Z,7.70
2023-02-22T02:57:12.107Z,7.68
2023-02-22T02:58:12.113Z,7.68
2023-02-22T02:59:12.118Z,7.70
2023-02-22T03:00:12.124Z,7.70
2023-02-22T03:01:12.150Z,7.69
2023-02-22T03:02:12.139Z,7.71
2023-02-22T03:03:12.146Z,7.71
2023-02-22T03:04:12.154Z,7.71
2023-02-22T03:05:12.160Z,7.71
2023-02-22T03:06:12.170Z,7.72
2023-02-22T03:07:12.237Z,7.73
2023-02-22T03:08:12.176Z,7.73
2023-02-22T03:09:12.184Z,7.72
2023-02-22T03:10:12.194Z,7.72
2023-02-22T03:11:12.200Z,7.72
2023-02-22T03:12:12.205Z,7.72
2023-02-22T03:13:12.217Z,7.72
2023-02-22T03:14:12.221Z,7.72
2023-02-22T03:15:12.231Z,7.71
2023-02-22T03:16:12.269Z,7.72
2023-02-22T03:17:12.245Z,7.71
2023-02-22T03:18:12.249Z,7.70
2023-02-22T03:19:12.255Z,7.72
2023-02-22T03:20:12.265Z,7.73
2023-02-22T03:21:12.272Z,7.71
2023-02-22T03:22:12.281Z,7.72
2023-02-22T03:23:12.287Z,7.72
2023-02-22T03:24:12.293Z,7.72
2023-02-22T03:25:12.300Z,7.71
2023-02-22T03:26:12.312Z,7.71
2023-02-22T03:27:12.334Z,7.72
2023-02-22T03:28:12.326Z,7.71
2023-02-22T03:29:12.385Z,7.71
2023-02-22T03:30:12.423Z,7.72
2023-02-22T03:31:12.374Z,7.73
2023-02-22T03:32:12.398Z,7.73
2023-02-22T03:33:12.359Z,7.71
2023-02-22T03:34:12.363Z,7.73
2023-02-22T03:35:12.382Z,7.72
2023-02-22T03:36:12.378Z,7.73
2023-02-22T03:37:12.382Z,7.73
2023-02-22T03:38:12.394Z,7.74
2023-02-22T03:39:12.396Z,7.73
2023-02-22T03:40:12.403Z,7.73
2023-02-22T03:41:12.424Z,7.73
2023-02-22T03:42:12.420Z,7.74
2023-02-22T03:43:12.448Z,7.74
2023-02-22T03:44:12.433Z,7.73
2023-02-22T03:45:12.440Z,7.71
2023-02-22T03:46:12.481Z,7.70
2023-02-22T03:47:12.455Z,7.71
2023-02-22T03:48:12.462Z,7.71
2023-02-22T03:49:12.472Z,7.71
2023-02-22T03:50:12.473Z,7.72
2023-02-22T03:51:12.681Z,7.71
2023-02-22T03:52:12.493Z,7.74
2023-02-22T03:53:12.500Z,7.72
2023-02-22T03:54:12.502Z,7.73
2023-02-22T03:55:12.522Z,7.72
2023-02-22T03:56:12.513Z,7.72
2023-02-22T03:57:12.530Z,7.73
2023-02-22T03:58:12.524Z,7.73
2023-02-22T03:59:12.534Z,7.75
2023-02-22T04:00:12.544Z,7.75
2023-02-22T04:01:12.548Z,7.73
2023-02-22T04:02:12.552Z,7.74
2023-02-22T04:03:12.601Z,7.74
2023-02-22T04:04:12.575Z,7.74
2023-02-22T04:05:12.578Z,7.74
2023-02-22T04:06:12.594Z,7.73
2023-02-22T04:07:12.596Z,7.74
2023-02-22T04:08:12.605Z,7.74
2023-02-22T04:09:12.610Z,7.73
2023-02-22T04:10:12.623Z,7.72
2023-02-22T04:11:12.636Z,7.74
2023-02-22T04:12:12.654Z,7.71
2023-02-22T04:13:12.654Z,7.70
2023-02-22T04:14:12.660Z,7.69
2023-02-22T04:15:12.661Z,7.67
2023-02-22T04:16:12.710Z,7.67
2023-02-22T04:17:12.680Z,7.69
2023-02-22T04:18:12.684Z,7.67
2023-02-22T04:19:12.690Z,7.68
2023-02-22T04:20:12.702Z,7.68
2023-02-22T04:21:12.710Z,7.68
2023-02-22T04:22:12.716Z,7.67
2023-02-22T04:23:12.727Z,7.68
2023-02-22T04:24:12.734Z,7.70
2023-02-22T04:25:12.735Z,7.70
2023-02-22T04:26:12.743Z,7.71
2023-02-22T04:27:12.750Z,7.71
2023-02-22T04:28:12.752Z,7.70
2023-02-22T04:29:12.762Z,7.70
2023-02-22T04:30:12.794Z,7.70
2023-02-22T04:31:12.812Z,7.72
2023-02-22T04:32:12.911Z,7.71
2023-02-22T04:33:12.796Z,7.75
2023-02-22T04:34:12.804Z,7.71
2023-02-22T04:35:12.812Z,7.71
2023-02-22T04:36:12.822Z,7.71
2023-02-22T04:37:12.829Z,7.71
2023-02-22T04:38:12.837Z,7.72
2023-02-22T04:39:12.845Z,7.72
2023-02-22T04:40:12.861Z,7.69
2023-02-22T04:41:12.856Z,7.70
2023-02-22T04:42:12.871Z,7.69
2023-02-22T04:43:12.868Z,7.68
2023-02-22T04:44:12.892Z,7.69
2023-02-22T04:45:12.886Z,7.70
2023-02-22T04:46:12.907Z,7.71
2023-02-22T04:47:12.907Z,7.69
2023-02-22T04:48:12.914Z,7.69
2023-02-22T04:49:12.920Z,7.70
2023-02-22T04:50:12.941Z,7.69
2023-02-22T04:51:12.941Z,7.69
2023-02-22T04:52:12.950Z,7.69
2023-02-22T04:53:12.957Z,7.69
2023-02-22T04:54:12.993Z,7.69
2023-02-22T04:55:12.975Z,7.67
2023-02-22T04:56:12.984Z,7.67
2023-02-22T04:57:12.984Z,7.67
2023-02-22T04:58:12.993Z,7.67
2023-02-22T04:59:13.008Z,7.66
2023-02-22T05:00:13.012Z,7.67
2023-02-22T05:01:13.017Z,7.65
2023-02-22T05:02:13.021Z,7.67
2023-02-22T05:03:13.028Z,7.68
2023-02-22T05:04:13.033Z,7.67
2023-02-22T05:05:13.047Z,7.69
2023-02-22T05:06:13.056Z,7.68
2023-02-22T05:07:13.078Z,7.67
2023-02-22T05:08:13.074Z,7.69
2023-02-22T05:09:13.078Z,7.68
2023-02-22T05:10:13.082Z,7.66
2023-02-22T05:11:13.095Z,7.68
2023-02-22T05:12:13.110Z,7.66
2023-02-22T05:13:13.118Z,7.67
2023-02-22T05:14:20.790Z,7.66
2023-02-22T05:15:13.130Z,7.66
2023-02-22T05:16:13.218Z,7.66
2023-02-22T05:17:13.146Z,7.66
2023-02-22T05:18:13.157Z,7.65
2023-02-22T05:19:13.185Z,7.65
2023-02-22T05:20:13.174Z,7.65
2023-02-22T05:21:13.183Z,7.65
2023-02-22T05:22:13.203Z,7.66
2023-02-22T05:23:13.201Z,7.66
2023-02-22T05:24:13.200Z,7.65
2023-02-22T05:25:13.223Z,7.65
2023-02-22T05:26:13.221Z,7.66
2023-02-22T05:27:13.223Z,7.64
2023-02-22T05:28:13.229Z,7.64
2023-02-22T05:29:13.239Z,7.65
2023-02-22T05:30:13.281Z,7.63
2023-02-22T05:31:13.266Z,7.65
2023-02-22T05:32:13.327Z,7.66
2023-02-22T05:33:13.309Z,7.66
2023-02-22T05:34:13.267Z,7.67
2023-02-22T05:35:13.278Z,7.68
2023-02-22T05:36:13.290Z,7.67
2023-02-22T05:37:13.296Z,7.68
2023-02-22T05:38:13.307Z,7.70
2023-02-22T05:39:13.435Z,7.70
2023-02-22T05:40:13.325Z,7.68
2023-02-22T05:41:13.336Z,7.70
2023-02-22T05:42:13.347Z,7.69
2023-02-22T05:43:13.352Z,7.69
2023-02-22T05:44:13.359Z,7.69
2023-02-22T05:45:13.366Z,7.70
2023-02-22T05:46:13.398Z,7.69
2023-02-22T05:47:13.387Z,7.71
2023-02-22T05:48:13.406Z,7.68
2023-02-22T05:49:13.407Z,7.69
2023-02-22T05:50:13.447Z,7.69
2023-02-22T05:51:13.424Z,7.68
2023-02-22T05:52:13.432Z,7.67
2023-02-22T05:53:13.437Z,7.64
2023-02-22T05:54:13.446Z,7.66
2023-02-22T05:55:13.452Z,7.67
2023-02-22T05:56:13.464Z,7.67
2023-02-22T05:57:13.467Z,7.68
2023-02-22T05:58:13.476Z,7.68
2023-02-22T05:59:13.484Z,7.67
2023-02-22T06:00:13.493Z,7.68
2023-02-22T06:01:13.496Z,7.67
2023-02-22T06:02:13.581Z,7.67
2023-02-22T06:03:13.513Z,7.65
2023-02-22T06:04:13.522Z,7.66
2023-02-22T06:05:13.568Z,7.64
2023-02-22T06:06:13.537Z,7.65
2023-02-22T06:07:13.546Z,7.67
2023-02-22T06:08:13.554Z,7.64
2023-02-22T06:09:13.569Z,7.66
2023-02-22T06:10:13.569Z,7.67
2023-02-22T06:11:13.575Z,7.68
2023-02-22T06:12:13.581Z,7.69
2023-02-22T06:13:13.590Z,7.71
2023-02-22T06:14:13.599Z,7.71
2023-02-22T06:15:13.610Z,7.73
2023-02-22T06:16:13.663Z,7.73
2023-02-22T06:17:13.636Z,7.74
2023-02-22T06:18:13.637Z,7.74
2023-02-22T06:19:13.643Z,7.76
2023-02-22T06:20:13.659Z,7.78
2023-02-22T06:21:13.673Z,7.78
2023-02-22T06:22:13.664Z,7.78
2023-02-22T06:23:13.669Z,7.80
2023-02-22T06:24:13.678Z,7.79
2023-02-22T06:25:13.687Z,7.77
2023-02-22T06:26:13.697Z,7.78
2023-02-22T06:27:13.702Z,7.78
2023-02-22T06:28:13.708Z,7.79
2023-02-22T06:29:13.718Z,7.77
2023-02-22T06:30:13.773Z,7.79
2023-02-22T06:31:13.800Z,7.77
2023-02-22T06:32:13.759Z,7.78
2023-02-22T06:33:13.746Z,7.79
2023-02-22T06:34:13.753Z,7.80
2023-02-22T06:35:13.759Z,7.81
2023-02-22T06:36:13.786Z,7.81
2023-02-22T06:37:13.770Z,7.83
2023-02-22T06:38:13.783Z,7.83
2023-02-22T06:39:13.784Z,7.84
2023-02-22T06:40:13.793Z,7.85
2023-02-22T06:41:13.838Z,7.86
2023-02-22T06:42:13.826Z,7.87
2023-02-22T06:43:13.812Z,7.87
2023-02-22T06:44:13.818Z,7.86
2023-02-22T06:45:13.824Z,7.86
2023-02-22T06:46:13.834Z,7.85
2023-02-22T06:47:13.840Z,7.83
2023-02-22T06:48:13.847Z,7.86
2023-02-22T06:49:13.860Z,7.85
2023-02-22T06:50:13.875Z,7.85
2023-02-22T06:51:13.893Z,7.87
2023-02-22T06:52:13.886Z,7.86
2023-02-22T06:53:13.896Z,7.86
2023-02-22T06:54:13.904Z,7.88
2023-02-22T06:55:13.914Z,7.91
2023-02-22T06:56:13.928Z,7.92
2023-02-22T06:57:13.929Z,7.93
2023-02-22T06:58:13.934Z,7.94
2023-02-22T06:59:13.942Z,7.95
2023-02-22T07:00:13.949Z,7.95
2023-02-22T07:01:14.157Z,7.93
2023-02-22T07:02:13.968Z,7.94
2023-02-22T07:03:13.976Z,7.95
2023-02-22T07:04:13.985Z,7.94
2023-02-22T07:05:13.987Z,7.93
2023-02-22T07:06:13.994Z,7.95
2023-02-22T07:07:14.001Z,7.97
2023-02-22T07:08:14.006Z,7.96
2023-02-22T07:09:14.016Z,7.97
2023-02-22T07:10:14.024Z,7.98
2023-02-22T07:11:14.058Z,7.97
2023-02-22T07:12:14.041Z,7.98
2023-02-22T07:13:14.050Z,7.97
2023-02-22T07:14:14.060Z,7.97
2023-02-22T07:15:14.064Z,7.98
2023-02-22T07:16:14.130Z,8.00
2023-02-22T07:17:14.080Z,7.99
2023-02-22T07:18:14.112Z,8.03
2023-02-22T07:19:14.098Z,8.02
2023-02-22T07:20:14.106Z,8.04
2023-02-22T07:21:14.117Z,8.04
2023-02-22T07:22:14.117Z,8.06
2023-02-22T07:23:14.127Z,8.05
2023-02-22T07:24:14.132Z,8.06
2023-02-22T07:25:14.141Z,8.06
2023-02-22T07:26:14.161Z,8.07
2023-02-22T07:27:14.164Z,8.07
2023-02-22T07:28:14.167Z,8.09
2023-02-22T07:29:14.176Z,8.08
2023-02-22T07:30:14.213Z,8.09
2023-02-22T07:31:14.300Z,8.10
2023-02-22T07:32:14.328Z,8.11
2023-02-22T07:33:14.271Z,8.10
2023-02-22T07:34:14.222Z,8.10
2023-02-22T07:35:14.225Z,8.12
2023-02-22T07:36:14.253Z,8.13
2023-02-22T07:37:14.253Z,8.14
2023-02-22T07:38:14.260Z,8.14
2023-02-22T07:39:14.268Z,8.15
2023-02-22T07:40:14.281Z,8.16
2023-02-22T07:41:14.513Z,8.19
2023-02-22T07:42:14.295Z,8.19
2023-02-22T07:43:14.307Z,8.23
2023-02-22T07:44:14.319Z,8.22
2023-02-22T07:45:14.321Z,8.21
2023-02-22T07:46:14.375Z,8.26
2023-02-22T07:47:14.345Z,8.26
2023-02-22T07:48:16.897Z,8.25
2023-02-22T07:49:14.368Z,8.25
2023-02-22T07:50:14.379Z,8.27
2023-02-22T07:51:14.588Z,8.28
2023-02-22T07:52:14.416Z,8.30
2023-02-22T07:53:14.419Z,8.32
2023-02-22T07:54:14.433Z,8.33
2023-02-22T07:55:14.430Z,8.35
2023-02-22T07:56:14.453Z,8.35
2023-02-22T07:57:14.457Z,8.36
2023-02-22T07:58:14.474Z,8.38
2023-02-22T07:59:14.483Z,8.40
2023-02-22T08:00:14.546Z,8.44
2023-02-22T08:01:14.494Z,8.45
2023-02-22T08:02:14.513Z,8.47
2023-02-22T08:03:14.557Z,8.48
2023-02-22T08:04:14.516Z,8.51
2023-02-22T08:05:14.517Z,8.54
2023-02-22T08:06:14.535Z,8.55
2023-02-22T08:07:14.536Z,8.57
2023-02-22T08:08:14.607Z,8.57
2023-02-22T08:09:14.593Z,8.61
2023-02-22T08:10:14.562Z,8.62
2023-02-22T08:11:14.884Z,8.69
2023-02-22T08:12:14.579Z,8.72
2023-02-22T08:13:14.600Z,8.72
2023-02-22T08:14:14.597Z,8.75
2023-02-22T08:15:14.604Z,8.79
2023-02-22T08:16:14.612Z,8.80
2023-02-22T08:17:14.641Z,8.79
2023-02-22T08:18:14.620Z,8.82
2023-02-22T08:19:14.643Z,8.84
2023-02-22T08:20:14.654Z,8.88
2023-02-22T08:21:14.743Z,8.93
2023-02-22T08:22:14.664Z,8.96
2023-02-22T08:23:14.668Z,8.99
2023-02-22T08:24:14.688Z,9.01
2023-02-22T08:25:14.693Z,9.04
2023-02-22T08:26:14.715Z,9.08
2023-02-22T08:27:14.718Z,9.10
2023-02-22T08:28:14.727Z,9.12
2023-02-22T08:29:14.736Z,9.15
2023-02-22T08:30:14.749Z,9.17
2023-02-22T08:31:14.923Z,9.20
2023-02-22T08:32:14.880Z,9.22
2023-02-22T08:33:14.849Z,9.22
2023-02-22T08:34:14.780Z,9.21
2023-02-22T08:35:14.792Z,9.22
2023-02-22T08:36:14.802Z,9.23
2023-02-22T08:37:14.799Z,9.23
2023-02-22T08:38:14.804Z,9.24
2023-02-22T08:39:14.817Z,9.26
2023-02-22T08:40:15.133Z,9.27
2023-02-22T08:41:15.044Z,9.27
2023-02-22T08:42:14.834Z,9.26
2023-02-22T08:43:14.843Z,9.28
2023-02-22T08:44:14.852Z,9.31
2023-02-22T08:45:14.853Z,9.33
2023-02-22T08:46:14.924Z,9.33
2023-02-22T08:47:14.869Z,9.32
2023-02-22T08:48:14.880Z,9.33
2023-02-22T08:49:14.886Z,9.31
2023-02-22T08:50:14.898Z,9.30
2023-02-22T08:51:15.068Z,9.28
2023-02-22T08:52:14.921Z,9.31
2023-02-22T08:53:14.922Z,9.32
2023-02-22T08:54:14.923Z,9.37
2023-02-22T08:55:14.936Z,9.39
2023-02-22T08:56:14.938Z,9.41
2023-02-22T08:57:14.950Z,9.48
2023-02-22T08:58:14.981Z,9.50
2023-02-22T08:59:14.965Z,9.54
2023-02-22T09:00:14.968Z,9.60
2023-02-22T09:01:19.223Z,9.61
2023-02-22T09:02:15.001Z,9.63
2023-02-22T09:03:14.999Z,9.65
2023-02-22T09:04:15.003Z,9.68
2023-02-22T09:05:15.031Z,9.71
2023-02-22T09:06:15.068Z,9.73
2023-02-22T09:07:15.038Z,9.77
2023-02-22T09:08:15.041Z,9.80
2023-02-22T09:09:15.047Z,9.84
2023-02-22T09:10:15.056Z,9.86
2023-02-22T09:11:15.282Z,9.84
2023-02-22T09:12:15.076Z,9.86
2023-02-22T09:13:15.091Z,9.86
2023-02-22T09:14:15.103Z,9.87
2023-02-22T09:15:15.111Z,9.85
2023-02-22T09:16:15.141Z,9.87
2023-02-22T09:17:15.121Z,9.89
2023-02-22T09:18:15.128Z,9.91
2023-02-22T09:19:15.144Z,9.93
2023-02-22T09:20:15.153Z,9.94
2023-02-22T09:21:15.551Z,9.98
2023-02-22T09:22:15.174Z,10.02
2023-02-22T09:23:15.184Z,10.07
2023-02-22T09:24:15.199Z,10.15
2023-02-22T09:25:17.212Z,10.21
2023-02-22T09:26:15.214Z,10.27
2023-02-22T09:27:15.221Z,10.30
2023-02-22T09:28:15.230Z,10.36
2023-02-22T09:29:15.225Z,10.47
2023-02-22T09:30:15.258Z,10.55
2023-02-22T09:31:15.455Z,10.65
2023-02-22T09:32:15.479Z,10.71
2023-02-22T09:33:15.420Z,10.71
2023-02-22T09:34:15.278Z,10.72
2023-02-22T09:35:15.279Z,10.71
2023-02-22T09:36:15.558Z,10.74
2023-02-22T09:37:15.298Z,10.71
2023-02-22T09:38:15.302Z,10.73
2023-02-22T09:39:15.311Z,10.71
2023-02-22T09:40:15.309Z,10.69
2023-02-22T09:41:15.777Z,10.73
2023-02-22T09:42:15.344Z,10.72
2023-02-22T09:43:15.358Z,10.65
2023-02-22T09:44:15.370Z,10.63
2023-02-22T09:45:15.376Z,10.63
2023-02-22T09:46:15.745Z,10.62
2023-02-22T09:47:15.442Z,10.60
2023-02-22T09:48:21.524Z,10.61
2023-02-22T09:49:15.420Z,10.58
2023-02-22T09:50:15.419Z,10.59
2023-02-22T09:51:15.438Z,10.60
2023-02-22T09:52:15.440Z,10.59
2023-02-22T09:53:15.463Z,10.57
2023-02-22T09:54:15.461Z,10.49
2023-02-22T09:55:15.463Z,10.46
2023-02-22T09:56:15.894Z,10.47
2023-02-22T09:57:15.485Z,10.47
2023-02-22T09:58:15.491Z,10.51
2023-02-22T09:59:15.501Z,10.51
2023-02-22T10:00:15.512Z,10.54
2023-02-22T10:01:15.524Z,10.54
2023-02-22T10:02:15.531Z,10.56
2023-02-22T10:03:15.540Z,10.56
2023-02-22T10:04:15.546Z,10.54
2023-02-22T10:05:15.585Z,10.53
2023-02-22T10:06:15.884Z,10.53
2023-02-22T10:07:15.574Z,10.53
2023-02-22T10:08:15.586Z,10.49
2023-02-22T10:09:15.601Z,10.49
2023-02-22T10:10:15.608Z,10.48
2023-02-22T10:11:15.612Z,10.42
2023-02-22T10:12:15.620Z,10.40
2023-02-22T10:13:15.627Z,10.41
2023-02-22T10:14:15.652Z,10.42
2023-02-22T10:15:15.657Z,10.38
2023-02-22T10:16:15.957Z,10.42
2023-02-22T10:17:15.674Z,10.39
2023-02-22T10:18:15.687Z,10.41
2023-02-22T10:19:15.699Z,10.40
2023-02-22T10:20:15.716Z,10.41
2023-02-22T10:21:15.705Z,10.43
2023-02-22T10:22:15.718Z,10.46
2023-02-22T10:23:15.731Z,10.45
2023-02-22T10:24:15.736Z,10.49
2023-02-22T10:25:15.747Z,10.49
2023-02-22T10:26:16.150Z,10.55
2023-02-22T10:27:15.759Z,10.58
2023-02-22T10:28:15.780Z,10.55
2023-02-22T10:29:15.779Z,10.63
2023-02-22T10:30:24.369Z,10.60
2023-02-22T10:31:15.917Z,10.64
2023-02-22T10:32:15.893Z,10.68
2023-02-22T10:33:15.830Z,10.68
2023-02-22T10:34:15.854Z,10.70
2023-02-22T10:35:15.845Z,10.72
2023-02-22T10:36:16.131Z,10.71
2023-02-22T10:37:15.896Z,10.73
2023-02-22T10:38:15.874Z,10.75
2023-02-22T10:39:15.922Z,10.75
2023-02-22T10:40:15.889Z,10.80
2023-02-22T10:41:17.529Z,10.84
2023-02-22T10:42:15.909Z,10.87
2023-02-22T10:43:15.917Z,10.87
2023-02-22T10:44:15.935Z,10.95
2023-02-22T10:45:15.935Z,10.95
2023-02-22T10:46:16.370Z,10.94
2023-02-22T10:47:17.914Z,10.91
2023-02-22T10:48:15.972Z,10.87
2023-02-22T10:49:15.979Z,10.85
2023-02-22T10:50:16.007Z,10.82
2023-02-22T10:51:16.015Z,10.82
2023-02-22T10:52:16.007Z,10.84
2023-02-22T10:53:16.024Z,10.83
2023-02-22T10:54:16.033Z,10.81
2023-02-22T10:55:16.264Z,10.78
2023-02-22T10:56:16.410Z,10.76
2023-02-22T10:57:16.063Z,10.74
2023-02-22T10:58:16.074Z,10.75
2023-02-22T10:59:16.085Z,10.71
2023-02-22T11:00:16.088Z,10.73
2023-02-22T11:01:16.446Z,10.74
2023-02-22T11:02:16.107Z,10.73
2023-02-22T11:03:16.118Z,10.75
2023-02-22T11:04:16.143Z,10.77
2023-02-22T11:05:16.187Z,10.83
2023-02-22T11:06:16.382Z,10.89
2023-02-22T11:07:16.155Z,10.90
2023-02-22T11:08:16.161Z,10.92
2023-02-22T11:09:16.164Z,10.94
2023-02-22T11:10:16.198Z,10.98
2023-02-22T11:11:16.572Z,11.04
2023-02-22T11:12:16.225Z,11.05
2023-02-22T11:13:16.195Z,11.10
2023-02-22T11:14:16.207Z,11.12
2023-02-22T11:15:16.219Z,11.14
2023-02-22T11:16:16.267Z,11.09
2023-02-22T11:17:16.237Z,11.08
2023-02-22T11:18:16.242Z,11.10
2023-02-22T11:19:16.253Z,11.13
2023-02-22T11:20:16.266Z,11.19
2023-02-22T11:21:16.521Z,11.14
2023-02-22T11:22:16.285Z,11.14
2023-02-22T11:23:16.425Z,11.13
2023-02-22T11:25:16.480Z,11.03
2023-02-22T11:26:16.321Z,11.01
2023-02-22T11:27:16.335Z,11.00
2023-02-22T11:28:16.346Z,11.05
2023-02-22T11:29:16.356Z,11.09
2023-02-22T11:30:16.515Z,11.07
2023-02-22T11:31:16.760Z,11.08
2023-02-22T11:32:16.407Z,11.05
2023-02-22T11:33:16.400Z,11.01
2023-02-22T11:34:16.599Z,11.00
2023-02-22T11:35:16.418Z,10.98
2023-02-22T11:36:16.422Z,10.94
2023-02-22T11:37:16.440Z,10.97
2023-02-22T11:38:16.450Z,10.92
2023-02-22T11:39:16.457Z,10.94
2023-02-22T11:40:16.465Z,10.91
2023-02-22T11:41:16.958Z,10.88
2023-02-22T11:42:16.488Z,10.87
2023-02-22T11:43:16.492Z,10.83
2023-02-22T11:44:16.508Z,10.81
2023-02-22T11:45:16.511Z,10.83
2023-02-22T11:46:16.573Z,10.77
2023-02-22T11:47:16.530Z,10.74
2023-02-22T11:48:16.533Z,10.78
2023-02-22T11:49:16.567Z,10.75
2023-02-22T11:50:16.546Z,10.73
2023-02-22T11:51:16.876Z,10.70
2023-02-22T11:52:16.562Z,10.73
2023-02-22T11:53:16.565Z,10.77
2023-02-22T11:54:16.620Z,10.84
2023-02-22T11:55:16.576Z,10.92
2023-02-22T11:56:18.721Z,11.00
2023-02-22T11:57:16.624Z,11.06
2023-02-22T11:58:16.617Z,11.15
2023-02-22T11:59:16.623Z,11.23
2023-02-22T12:00:16.855Z,11.32
2023-02-22T12:01:16.648Z,11.40
2023-02-22T12:02:16.651Z,11.44
2023-02-22T12:03:16.713Z,11.48
2023-02-22T12:04:16.887Z,11.52
2023-02-22T12:05:16.695Z,11.60
2023-02-22T12:06:17.011Z,11.67
2023-02-22T12:07:16.691Z,11.69
2023-02-22T12:08:19.919Z,11.73
2023-02-22T12:09:16.709Z,11.79
2023-02-22T12:10:16.723Z,11.83
2023-02-22T12:11:16.737Z,11.92
2023-02-22T12:12:16.734Z,12.05
2023-02-22T12:13:16.748Z,12.17
2023-02-22T12:14:16.758Z,12.27
2023-02-22T12:15:16.774Z,12.37
2023-02-22T12:16:17.218Z,12.44
2023-02-22T12:17:16.787Z,12.47
2023-02-22T12:18:16.802Z,12.48
2023-02-22T12:19:16.805Z,12.54
2023-02-22T12:20:16.816Z,12.53
2023-02-22T12:21:16.875Z,12.55
2023-02-22T12:22:16.845Z,12.54
2023-02-22T12:23:16.858Z,12.57
2023-02-22T12:24:16.862Z,12.59
2023-02-22T12:25:16.870Z,12.59
2023-02-22T12:26:17.166Z,12.61
2023-02-22T12:27:16.915Z,12.62
2023-02-22T12:28:24.133Z,12.61
2023-02-22T12:29:16.903Z,12.69
2023-02-22T12:30:16.925Z,12.75
2023-02-22T12:31:17.234Z,12.78
2023-02-22T12:32:17.085Z,12.82
2023-02-22T12:33:16.963Z,12.88
2023-02-22T12:34:17.132Z,12.89
2023-02-22T12:35:16.953Z,12.92
2023-02-22T12:36:16.980Z,12.92
2023-02-22T12:37:16.978Z,12.96
2023-02-22T12:38:16.986Z,12.95
2023-02-22T12:39:16.997Z,12.97
2023-02-22T12:40:17.015Z,12.99
2023-02-22T12:41:17.336Z,13.06
2023-02-22T12:42:17.029Z,13.10
2023-02-22T12:43:17.039Z,13.14
2023-02-22T12:44:17.046Z,13.14
2023-02-22T12:45:17.088Z,13.14
2023-02-22T12:46:17.126Z,13.11
2023-02-22T12:47:17.081Z,13.11
2023-02-22T12:48:17.092Z,13.11
2023-02-22T12:49:17.100Z,13.12
2023-02-22T12:50:17.113Z,13.17
2023-02-22T12:51:17.429Z,13.22
2023-02-22T12:52:21.485Z,13.24
2023-02-22T12:53:17.151Z,13.23
2023-02-22T12:54:17.162Z,13.23
2023-02-22T12:55:17.179Z,13.26
2023-02-22T12:56:17.195Z,13.29
2023-02-22T12:57:17.201Z,13.25
2023-02-22T12:58:17.212Z,13.24
2023-02-22T12:59:17.225Z,13.28
2023-02-22T13:00:17.240Z,13.27
2023-02-22T13:01:17.557Z,13.33
2023-02-22T13:02:17.256Z,13.30
2023-02-22T13:03:17.290Z,13.31
2023-02-22T13:04:20.783Z,13.34
2023-02-22T13:05:17.303Z,13.36
2023-02-22T13:06:17.301Z,13.40
2023-02-22T13:07:17.324Z,13.39
2023-02-22T13:08:17.320Z,13.39
2023-02-22T13:09:17.321Z,13.37
2023-02-22T13:10:17.334Z,13.36
2023-02-22T13:11:17.649Z,13.37
2023-02-22T13:12:17.358Z,13.36
2023-02-22T13:13:17.375Z,13.33
2023-02-22T13:14:17.380Z,13.35
2023-02-22T13:15:17.399Z,13.41
2023-02-22T13:16:17.428Z,13.42
2023-02-22T13:17:17.421Z,13.47
2023-02-22T13:18:17.440Z,13.47
2023-02-22T13:19:17.433Z,13.46
2023-02-22T13:20:17.449Z,13.48
2023-02-22T13:21:17.830Z,13.53
2023-02-22T13:22:17.455Z,13.53
2023-02-22T13:23:17.460Z,13.49
2023-02-22T13:24:17.476Z,13.40
2023-02-22T13:25:17.484Z,13.36
2023-02-22T13:26:17.499Z,13.34
2023-02-22T13:27:17.506Z,13.36
2023-02-22T13:28:17.512Z,13.33